Doddridge, Arkansas
Current Conditions -  °F | °C
As of 10:53 PM on Monday 26 Jan 2015 (Local Time) from KTXK Reporting Station
Clear Clear  
Wind Chill: 44°   Ceiling: Unl
Heat Index: 47°   Visibility: 10mi
Dew Point: 36°   Wind: 7mph
Humidity: 66%   Direction: 220°SW
Pressure: 30.05"   Gusts: NA
Location:  33.09°N, 93.91°W
Report Text: KTXK 270453Z AUTO 22006KT 10SM CLR 08/02 A3005 RMK AO2 SLP175 T00830022
Loading
Personal Weather Stations






























Interactive Weather Map New forecast layout! Learn more

10-Day Weather Forecast

Advertisements
Track Severe Weather on mobile